首页
METAR-TAF:

METAR-TAF

机场 :

雅蒲島國際機場

雅蒲島, 密克罗尼西亚群岛

纬度: 09-29N, 经度: 138-05E, 海拔: 28米

当前天气观测

该预报发布于1小时和13分钟前的09:50 UTC
风速6节,风向多变
温度 28°C
湿度 79%
气压 1011 hPa
能見度: 19.3公里
少量云层高于1700英尺
多云层高于30000英尺

METAR: PTYA 150950Z VRB06KT 12SM FEW017 BKN300 28/24 A2984 RMK SLP105 T02810236

时间: 21:03 (11:03 UTC)

预报

该预报发布于5小时和42分钟前的05:21 UTC
预报有效从15日的 06点(UTC)到 16日的 06点(UTC)
风速11节,风向北转东北
能見度: 10公里
散云层高于1800英尺
从 15日的 1100点(UTC)
风速8节,风向北转东北
能見度: 10公里
散云层高于1600英尺
散云层高于12000英尺
附近有阵雨

TAF: PTYA 150521Z 1506/1606 03011KT P6SM SCT018 FM151100 03008KT P6SM VCSH SCT016 SCT120

超过4000个机场的气象观测和天气预报(METAR&TAF报告)。

可查询的气象台以黄色和红色小点在地图上表示。

将鼠标移到小点上方,可查看气象台名称。

然后点击查看天气观测和预报。

如需切换地图:点击带黑十字的绿色按钮放大地图;点击带横线的绿色按钮缩小地图;或者点击绿色箭头查看邻近地区的地图。


METAR-TAF: